createdAt,value
2023-04-06T00:06:27.881Z,15.53
2023-04-06T00:16:30.581Z,15.49
2023-04-06T00:26:32.195Z,15.42
2023-04-06T00:36:33.600Z,15.34
2023-04-06T00:46:35.175Z,15.33
2023-04-06T00:56:36.694Z,15.31
2023-04-06T01:06:38.114Z,15.28
2023-04-06T01:16:39.547Z,15.28
2023-04-06T01:26:41.230Z,15.21
2023-04-06T01:36:42.625Z,15.21
2023-04-06T01:46:44.234Z,15.18
2023-04-06T01:56:45.882Z,15.12
2023-04-06T02:06:47.345Z,15.14
2023-04-06T02:16:48.883Z,15.04
2023-04-06T02:26:50.787Z,15.24
2023-04-06T02:36:52.213Z,15.52
2023-04-06T02:46:53.813Z,15.82
2023-04-06T02:56:55.485Z,16.01
2023-04-06T03:06:58.740Z,16.16
2023-04-06T03:17:01.718Z,16.27
2023-04-06T03:27:03.194Z,16.40
2023-04-06T03:37:10.300Z,16.40
2023-04-06T03:47:11.994Z,16.29
2023-04-06T03:57:13.521Z,16.16
2023-04-06T04:07:14.944Z,16.07
2023-04-06T04:17:16.514Z,16.23
2023-04-06T04:27:17.924Z,16.35
2023-04-06T04:37:19.401Z,16.51
2023-04-06T04:47:20.802Z,16.58
2023-04-06T04:57:22.289Z,16.64
2023-04-06T05:07:23.724Z,16.62
2023-04-06T05:17:25.289Z,16.57
2023-04-06T05:27:27.294Z,16.55
2023-04-06T05:37:28.886Z,16.66
2023-04-06T05:47:30.647Z,16.79
2023-04-06T05:57:32.248Z,16.88
2023-04-06T06:07:33.665Z,16.95
2023-04-06T06:17:37.186Z,17.02
2023-04-06T06:27:40.100Z,17.46
2023-04-06T06:37:41.688Z,17.78
2023-04-06T06:47:43.164Z,18.24
2023-04-06T06:57:44.917Z,18.62
2023-04-06T07:07:46.423Z,18.91
2023-04-06T07:17:47.969Z,19.08
2023-04-06T07:27:49.513Z,19.40
2023-04-06T07:37:51.272Z,19.71
2023-04-06T07:47:52.787Z,20.04
2023-04-06T07:57:54.271Z,20.50
2023-04-06T08:07:56.027Z,20.40
2023-04-06T08:17:58.171Z,20.46
2023-04-06T08:27:59.722Z,21.10
2023-04-06T08:38:01.147Z,21.00
2023-04-06T08:48:02.848Z,21.08
2023-04-06T08:58:04.602Z,21.54
2023-04-06T09:08:06.372Z,21.26
2023-04-06T09:18:09.029Z,21.71
2023-04-06T09:28:10.614Z,21.18
2023-04-06T09:38:12.147Z,20.74
2023-04-06T09:48:13.643Z,21.03
2023-04-06T09:58:19.129Z,20.97
2023-04-06T10:08:20.583Z,20.76
2023-04-06T10:18:22.249Z,20.47
2023-04-06T10:28:24.003Z,20.43
2023-04-06T10:38:39.028Z,20.37
2023-04-06T10:48:43.807Z,20.30
2023-04-06T10:58:49.023Z,20.27
2023-04-06T11:08:53.944Z,20.31
2023-04-06T11:19:01.834Z,20.31
2023-04-06T11:29:03.670Z,20.30
2023-04-06T11:39:05.110Z,20.26
2023-04-06T11:49:06.669Z,20.21
2023-04-06T11:59:08.155Z,20.19
2023-04-06T12:09:09.662Z,20.13
2023-04-06T12:19:11.213Z,20.05
2023-04-06T12:29:14.230Z,19.93
2023-04-06T12:39:16.738Z,19.84
2023-04-06T12:49:19.955Z,19.77
2023-04-06T12:59:21.938Z,19.67
2023-04-06T13:09:23.453Z,19.61
2023-04-06T13:19:25.061Z,19.55
2023-04-06T13:29:27.170Z,19.48
2023-04-06T13:39:28.604Z,19.34
2023-04-06T13:49:30.047Z,19.22
2023-04-06T13:59:35.474Z,19.21
2023-04-06T14:09:36.972Z,19.13
2023-04-06T14:19:38.531Z,18.95
2023-04-06T14:29:40.498Z,18.85
2023-04-06T14:39:41.976Z,18.72
2023-04-06T14:49:43.562Z,18.58
2023-04-06T14:59:45.172Z,18.46
2023-04-06T15:09:46.581Z,18.33
2023-04-06T15:19:47.994Z,18.22
2023-04-06T15:29:49.542Z,18.15
2023-04-06T15:39:51.272Z,18.06
2023-04-06T15:49:52.844Z,17.96
2023-04-06T15:59:55.939Z,17.87
2023-04-06T16:09:57.461Z,17.80
2023-04-06T16:19:58.898Z,17.70
2023-04-06T16:40:08.437Z,17.53
2023-04-06T16:50:10.626Z,17.43
2023-04-06T17:00:12.767Z,17.34
2023-04-06T17:10:14.368Z,17.26
2023-04-06T17:20:15.924Z,17.17
2023-04-06T17:30:18.483Z,17.11
2023-04-06T17:40:20.334Z,17.04
2023-04-06T17:50:21.761Z,16.96
2023-04-06T18:00:24.843Z,16.91
2023-04-06T18:10:26.271Z,16.84
2023-04-06T18:20:27.702Z,16.79
2023-04-06T18:30:29.268Z,16.71
2023-04-06T18:40:37.822Z,16.69
2023-04-06T18:50:39.282Z,16.62
2023-04-06T19:00:41.860Z,16.55
2023-04-06T19:10:43.291Z,16.51
2023-04-06T19:20:44.749Z,16.49
2023-04-06T19:30:46.210Z,16.45
2023-04-06T19:40:47.610Z,16.45
2023-04-06T19:50:49.212Z,16.40
2023-04-06T20:00:50.878Z,16.42
2023-04-06T20:10:52.360Z,16.37
2023-04-06T20:20:54.458Z,16.31
2023-04-06T20:30:55.877Z,16.29
2023-04-06T20:40:59.549Z,16.24
2023-04-06T20:51:01.123Z,16.20
2023-04-06T21:01:02.552Z,16.22
2023-04-06T21:11:04.717Z,16.17
2023-04-06T21:21:06.267Z,16.13
2023-04-06T21:31:10.526Z,16.08
2023-04-06T21:41:12.062Z,16.09
2023-04-06T21:51:20.090Z,16.09
2023-04-06T22:01:21.508Z,16.05
2023-04-06T22:11:22.914Z,16.06
2023-04-06T22:21:24.632Z,16.02
2023-04-06T22:31:26.193Z,16.00
2023-04-06T22:41:27.881Z,16.00
2023-04-06T22:51:29.528Z,16.01
2023-04-06T23:01:31.238Z,16.00
2023-04-06T23:11:32.952Z,16.00
2023-04-06T23:21:34.384Z,15.99
2023-04-06T23:31:37.123Z,15.97
2023-04-06T23:41:38.588Z,15.99
2023-04-06T23:51:40.011Z,15.97
